sensor_id;sensor_type;location;lat;lon;timestamp;P1;durP1;ratioP1;P2;durP2;ratioP2
18818;SDS011;9537;45.594;9.294;2023-04-01T00:00:32;9.13;;;7.30;;
18818;SDS011;9537;45.594;9.294;2023-04-01T00:01:33;8.53;;;7.40;;
18818;SDS011;9537;45.594;9.294;2023-04-01T00:02:35;8.63;;;7.40;;
18818;SDS011;9537;45.594;9.294;2023-04-01T00:03:36;12.67;;;8.00;;
18818;SDS011;9537;45.594;9.294;2023-04-01T00:04:38;8.87;;;7.30;;
18818;SDS011;9537;45.594;9.294;2023-04-01T00:05:39;8.23;;;6.90;;
18818;SDS011;9537;45.594;9.294;2023-04-01T00:06:41;8.33;;;6.80;;
18818;SDS011;9537;45.594;9.294;2023-04-01T00:07:43;9.17;;;7.30;;
18818;SDS011;9537;45.594;9.294;2023-04-01T00:08:46;9.83;;;7.03;;
18818;SDS011;9537;45.594;9.294;2023-04-01T00:09:48;8.60;;;7.03;;
18818;SDS011;9537;45.594;9.294;2023-04-01T00:10:49;12.80;;;6.87;;
18818;SDS011;9537;45.594;9.294;2023-04-01T00:11:53;12.13;;;7.07;;
18818;SDS011;9537;45.594;9.294;2023-04-01T00:12:53;8.67;;;6.40;;
18818;SDS011;9537;45.594;9.294;2023-04-01T00:13:56;8.67;;;6.93;;
18818;SDS011;9537;45.594;9.294;2023-04-01T00:14:57;7.87;;;6.40;;
18818;SDS011;9537;45.594;9.294;2023-04-01T00:15:59;9.47;;;6.67;;
18818;SDS011;9537;45.594;9.294;2023-04-01T00:17:01;9.23;;;6.77;;
18818;SDS011;9537;45.594;9.294;2023-04-01T00:18:03;7.27;;;6.40;;
18818;SDS011;9537;45.594;9.294;2023-04-01T00:19:05;7.87;;;6.43;;
18818;SDS011;9537;45.594;9.294;2023-04-01T00:20:07;7.63;;;6.60;;
18818;SDS011;9537;45.594;9.294;2023-04-01T00:21:09;9.37;;;7.07;;
18818;SDS011;9537;45.594;9.294;2023-04-01T00:22:11;7.87;;;5.97;;
18818;SDS011;9537;45.594;9.294;2023-04-01T00:23:14;8.67;;;6.53;;
18818;SDS011;9537;45.594;9.294;2023-04-01T00:24:16;7.73;;;6.10;;
18818;SDS011;9537;45.594;9.294;2023-04-01T00:25:19;8.67;;;5.63;;
18818;SDS011;9537;45.594;9.294;2023-04-01T00:26:20;7.53;;;5.70;;
18818;SDS011;9537;45.594;9.294;2023-04-01T00:27:22;6.50;;;5.73;;
18818;SDS011;9537;45.594;9.294;2023-04-01T00:28:23;7.37;;;5.87;;
18818;SDS011;9537;45.594;9.294;2023-04-01T00:29:25;8.53;;;5.53;;
18818;SDS011;9537;45.594;9.294;2023-04-01T00:30:29;7.43;;;6.00;;
18818;SDS011;9537;45.594;9.294;2023-04-01T00:31:31;8.30;;;6.33;;
18818;SDS011;9537;45.594;9.294;2023-04-01T00:32:32;7.90;;;6.07;;
18818;SDS011;9537;45.594;9.294;2023-04-01T00:33:34;9.03;;;6.93;;
18818;SDS011;9537;45.594;9.294;2023-04-01T00:34:35;8.67;;;6.67;;
18818;SDS011;9537;45.594;9.294;2023-04-01T00:35:38;8.97;;;6.07;;
18818;SDS011;9537;45.594;9.294;2023-04-01T00:36:39;8.00;;;6.57;;
18818;SDS011;9537;45.594;9.294;2023-04-01T00:37:41;8.57;;;6.70;;
18818;SDS011;9537;45.594;9.294;2023-04-01T00:38:43;8.77;;;6.37;;
18818;SDS011;9537;45.594;9.294;2023-04-01T00:39:46;7.97;;;5.80;;
18818;SDS011;9537;45.594;9.294;2023-04-01T00:40:47;7.37;;;5.40;;
18818;SDS011;9537;45.594;9.294;2023-04-01T00:41:49;7.80;;;6.13;;
18818;SDS011;9537;45.594;9.294;2023-04-01T00:42:50;6.47;;;5.87;;
18818;SDS011;9537;45.594;9.294;2023-04-01T00:43:52;6.90;;;5.73;;
18818;SDS011;9537;45.594;9.294;2023-04-01T00:44:54;6.63;;;6.00;;
18818;SDS011;9537;45.594;9.294;2023-04-01T00:45:56;7.00;;;6.30;;
18818;SDS011;9537;45.594;9.294;2023-04-01T00:46:58;7.60;;;5.77;;
18818;SDS011;9537;45.594;9.294;2023-04-01T00:48:02;7.23;;;5.87;;
18818;SDS011;9537;45.594;9.294;2023-04-01T00:49:06;6.77;;;6.00;;
18818;SDS011;9537;45.594;9.294;2023-04-01T00:50:08;9.00;;;6.63;;
18818;SDS011;9537;45.594;9.294;2023-04-01T00:51:11;7.53;;;6.23;;
18818;SDS011;9537;45.594;9.294;2023-04-01T00:52:17;9.10;;;6.80;;
18818;SDS011;9537;45.594;9.294;2023-04-01T00:53:22;6.83;;;6.13;;
18818;SDS011;9537;45.594;9.294;2023-04-01T00:54:27;8.60;;;7.00;;
18818;SDS011;9537;45.594;9.294;2023-04-01T00:55:30;8.40;;;6.27;;
18818;SDS011;9537;45.594;9.294;2023-04-01T00:56:36;7.93;;;7.13;;
18818;SDS011;9537;45.594;9.294;2023-04-01T00:57:41;7.53;;;6.77;;
18818;SDS011;9537;45.594;9.294;2023-04-01T00:58:46;7.87;;;6.90;;
18818;SDS011;9537;45.594;9.294;2023-04-01T00:59:52;8.13;;;6.97;;
18818;SDS011;9537;45.594;9.294;2023-04-01T01:00:55;8.93;;;6.80;;
18818;SDS011;9537;45.594;9.294;2023-04-01T01:02:00;10.03;;;7.10;;
18818;SDS011;9537;45.594;9.294;2023-04-01T01:03:04;9.13;;;6.57;;
18818;SDS011;9537;45.594;9.294;2023-04-01T01:04:19;10.77;;;6.57;;
18818;SDS011;9537;45.594;9.294;2023-04-01T01:05:23;8.40;;;6.17;;
18818;SDS011;9537;45.594;9.294;2023-04-01T01:06:37;7.47;;;6.40;;
18818;SDS011;9537;45.594;9.294;2023-04-01T01:07:44;7.33;;;6.53;;
18818;SDS011;9537;45.594;9.294;2023-04-01T01:10:34;8.27;;;6.07;;
18818;SDS011;9537;45.594;9.294;2023-04-01T01:11:39;8.57;;;6.50;;
18818;SDS011;9537;45.594;9.294;2023-04-01T01:12:44;7.90;;;6.53;;
18818;SDS011;9537;45.594;9.294;2023-04-01T01:13:52;8.10;;;6.50;;
18818;SDS011;9537;45.594;9.294;2023-04-01T01:15:00;8.03;;;6.57;;
18818;SDS011;9537;45.594;9.294;2023-04-01T01:16:09;9.67;;;6.77;;
18818;SDS011;9537;45.594;9.294;2023-04-01T01:17:19;10.60;;;6.90;;
18818;SDS011;9537;45.594;9.294;2023-04-01T01:18:29;8.33;;;6.93;;
18818;SDS011;9537;45.594;9.294;2023-04-01T01:19:44;8.33;;;6.87;;
18818;SDS011;9537;45.594;9.294;2023-04-01T01:21:22;8.27;;;6.27;;
18818;SDS011;9537;45.594;9.294;2023-04-01T01:22:36;8.20;;;6.10;;
18818;SDS011;9537;45.594;9.294;2023-04-01T01:24:07;6.87;;;5.60;;
18818;SDS011;9537;45.594;9.294;2023-04-01T01:25:24;6.03;;;5.30;;
18818;SDS011;9537;45.594;9.294;2023-04-01T01:28:08;7.60;;;6.07;;
18818;SDS011;9537;45.594;9.294;2023-04-01T01:31:00;6.57;;;5.33;;
18818;SDS011;9537;45.594;9.294;2023-04-01T01:32:10;7.73;;;5.27;;
18818;SDS011;9537;45.594;9.294;2023-04-01T01:34:40;7.17;;;5.80;;
18818;SDS011;9537;45.594;9.294;2023-04-01T01:35:50;6.53;;;5.33;;
18818;SDS011;9537;45.594;9.294;2023-04-01T01:36:56;6.80;;;5.53;;
18818;SDS011;9537;45.594;9.294;2023-04-01T01:38:02;5.77;;;4.87;;
18818;SDS011;9537;45.594;9.294;2023-04-01T01:39:06;8.60;;;5.60;;
18818;SDS011;9537;45.594;9.294;2023-04-01T01:40:11;7.50;;;5.87;;
18818;SDS011;9537;45.594;9.294;2023-04-01T01:41:14;7.77;;;6.03;;
18818;SDS011;9537;45.594;9.294;2023-04-01T01:42:18;7.87;;;6.37;;
18818;SDS011;9537;45.594;9.294;2023-04-01T01:43:22;6.63;;;5.87;;
18818;SDS011;9537;45.594;9.294;2023-04-01T01:44:27;6.70;;;5.23;;
18818;SDS011;9537;45.594;9.294;2023-04-01T01:45:31;6.30;;;5.37;;
18818;SDS011;9537;45.594;9.294;2023-04-01T01:46:37;6.87;;;5.60;;
18818;SDS011;9537;45.594;9.294;2023-04-01T01:47:40;7.73;;;5.80;;
18818;SDS011;9537;45.594;9.294;2023-04-01T01:48:43;5.50;;;4.93;;
18818;SDS011;9537;45.594;9.294;2023-04-01T01:49:47;6.00;;;5.30;;
18818;SDS011;9537;45.594;9.294;2023-04-01T01:50:50;6.10;;;5.07;;
18818;SDS011;9537;45.594;9.294;2023-04-01T01:51:53;8.03;;;5.30;;
18818;SDS011;9537;45.594;9.294;2023-04-01T01:53:00;7.07;;;5.53;;
18818;SDS011;9537;45.594;9.294;2023-04-01T01:54:06;6.47;;;4.80;;
18818;SDS011;9537;45.594;9.294;2023-04-01T01:55:22;6.80;;;5.23;;
18818;SDS011;9537;45.594;9.294;2023-04-01T01:56:27;5.50;;;4.93;;
18818;SDS011;9537;45.594;9.294;2023-04-01T01:57:30;5.93;;;5.03;;
18818;SDS011;9537;45.594;9.294;2023-04-01T01:58:35;7.03;;;5.90;;
18818;SDS011;9537;45.594;9.294;2023-04-01T01:59:41;7.97;;;5.83;;
18818;SDS011;9537;45.594;9.294;2023-04-01T02:00:46;11.20;;;6.37;;
18818;SDS011;9537;45.594;9.294;2023-04-01T02:01:51;7.83;;;6.17;;
18818;SDS011;9537;45.594;9.294;2023-04-01T02:02:58;8.13;;;6.47;;
18818;SDS011;9537;45.594;9.294;2023-04-01T02:03:59;8.13;;;5.77;;
18818;SDS011;9537;45.594;9.294;2023-04-01T02:05:01;8.40;;;6.83;;
18818;SDS011;9537;45.594;9.294;2023-04-01T02:06:07;7.43;;;6.17;;
18818;SDS011;9537;45.594;9.294;2023-04-01T02:07:11;9.03;;;6.43;;
18818;SDS011;9537;45.594;9.294;2023-04-01T02:08:18;8.40;;;6.40;;
18818;SDS011;9537;45.594;9.294;2023-04-01T02:09:24;6.67;;;5.83;;
18818;SDS011;9537;45.594;9.294;2023-04-01T02:10:25;6.50;;;5.80;;
18818;SDS011;9537;45.594;9.294;2023-04-01T02:11:30;7.27;;;5.73;;
18818;SDS011;9537;45.594;9.294;2023-04-01T02:12:34;5.53;;;4.50;;
18818;SDS011;9537;45.594;9.294;2023-04-01T02:13:40;5.47;;;4.73;;
18818;SDS011;9537;45.594;9.294;2023-04-01T02:14:47;6.67;;;5.93;;
18818;SDS011;9537;45.594;9.294;2023-04-01T02:15:54;7.83;;;5.60;;
18818;SDS011;9537;45.594;9.294;2023-04-01T02:16:59;7.37;;;6.10;;
18818;SDS011;9537;45.594;9.294;2023-04-01T02:18:05;8.57;;;6.53;;
18818;SDS011;9537;45.594;9.294;2023-04-01T02:19:07;7.43;;;6.30;;
18818;SDS011;9537;45.594;9.294;2023-04-01T02:20:13;9.47;;;6.73;;
18818;SDS011;9537;45.594;9.294;2023-04-01T02:21:17;7.37;;;5.80;;
18818;SDS011;9537;45.594;9.294;2023-04-01T02:22:23;7.10;;;5.80;;
18818;SDS011;9537;45.594;9.294;2023-04-01T02:23:26;6.10;;;5.43;;
18818;SDS011;9537;45.594;9.294;2023-04-01T02:24:31;6.67;;;5.83;;
18818;SDS011;9537;45.594;9.294;2023-04-01T02:25:36;6.60;;;5.47;;
18818;SDS011;9537;45.594;9.294;2023-04-01T02:26:39;7.23;;;6.07;;
18818;SDS011;9537;45.594;9.294;2023-04-01T02:27:41;7.00;;;6.30;;
18818;SDS011;9537;45.594;9.294;2023-04-01T02:28:46;7.23;;;5.50;;
18818;SDS011;9537;45.594;9.294;2023-04-01T02:29:50;6.83;;;5.53;;
18818;SDS011;9537;45.594;9.294;2023-04-01T02:30:51;7.97;;;5.60;;
18818;SDS011;9537;45.594;9.294;2023-04-01T02:31:54;5.97;;;5.00;;
18818;SDS011;9537;45.594;9.294;2023-04-01T02:32:55;7.80;;;5.90;;
18818;SDS011;9537;45.594;9.294;2023-04-01T02:33:59;5.90;;;5.30;;
18818;SDS011;9537;45.594;9.294;2023-04-01T02:35:01;6.73;;;5.53;;
18818;SDS011;9537;45.594;9.294;2023-04-01T02:36:06;6.33;;;5.33;;
18818;SDS011;9537;45.594;9.294;2023-04-01T02:37:14;5.70;;;5.17;;
18818;SDS011;9537;45.594;9.294;2023-04-01T02:38:16;6.00;;;5.33;;
18818;SDS011;9537;45.594;9.294;2023-04-01T02:39:17;6.73;;;5.30;;
18818;SDS011;9537;45.594;9.294;2023-04-01T02:40:20;5.87;;;4.87;;
18818;SDS011;9537;45.594;9.294;2023-04-01T02:41:21;7.80;;;4.80;;
18818;SDS011;9537;45.594;9.294;2023-04-01T02:42:24;7.33;;;5.00;;
18818;SDS011;9537;45.594;9.294;2023-04-01T02:43:25;9.07;;;4.87;;
18818;SDS011;9537;45.594;9.294;2023-04-01T02:44:27;5.17;;;4.60;;
18818;SDS011;9537;45.594;9.294;2023-04-01T02:45:28;5.57;;;4.73;;
18818;SDS011;9537;45.594;9.294;2023-04-01T02:46:30;7.43;;;4.63;;
18818;SDS011;9537;45.594;9.294;2023-04-01T02:47:31;6.27;;;5.00;;
18818;SDS011;9537;45.594;9.294;2023-04-01T02:48:33;5.97;;;4.63;;
18818;SDS011;9537;45.594;9.294;2023-04-01T02:49:35;6.53;;;4.83;;
18818;SDS011;9537;45.594;9.294;2023-04-01T02:50:36;5.20;;;4.43;;
18818;SDS011;9537;45.594;9.294;2023-04-01T02:51:38;6.63;;;4.80;;
18818;SDS011;9537;45.594;9.294;2023-04-01T02:52:41;6.00;;;4.50;;
18818;SDS011;9537;45.594;9.294;2023-04-01T02:53:43;4.87;;;4.30;;
18818;SDS011;9537;45.594;9.294;2023-04-01T02:54:44;5.73;;;4.90;;
18818;SDS011;9537;45.594;9.294;2023-04-01T02:55:46;4.97;;;4.47;;
18818;SDS011;9537;45.594;9.294;2023-04-01T02:56:47;4.83;;;4.33;;
18818;SDS011;9537;45.594;9.294;2023-04-01T02:57:48;5.50;;;4.70;;
18818;SDS011;9537;45.594;9.294;2023-04-01T02:58:49;5.67;;;4.60;;
18818;SDS011;9537;45.594;9.294;2023-04-01T02:59:52;4.67;;;4.27;;
18818;SDS011;9537;45.594;9.294;2023-04-01T03:00:53;6.53;;;4.70;;
18818;SDS011;9537;45.594;9.294;2023-04-01T03:01:55;7.37;;;4.30;;
18818;SDS011;9537;45.594;9.294;2023-04-01T03:02:56;6.87;;;4.60;;
18818;SDS011;9537;45.594;9.294;2023-04-01T03:03:58;5.57;;;4.70;;
18818;SDS011;9537;45.594;9.294;2023-04-01T03:04:58;6.67;;;5.07;;
18818;SDS011;9537;45.594;9.294;2023-04-01T03:06:04;5.57;;;4.83;;
18818;SDS011;9537;45.594;9.294;2023-04-01T03:07:06;5.40;;;4.60;;
18818;SDS011;9537;45.594;9.294;2023-04-01T03:08:10;6.47;;;5.30;;
18818;SDS011;9537;45.594;9.294;2023-04-01T03:09:12;5.77;;;4.97;;
18818;SDS011;9537;45.594;9.294;2023-04-01T03:10:14;5.90;;;5.10;;
18818;SDS011;9537;45.594;9.294;2023-04-01T03:11:15;5.73;;;4.40;;
18818;SDS011;9537;45.594;9.294;2023-04-01T03:12:17;5.97;;;4.87;;
18818;SDS011;9537;45.594;9.294;2023-04-01T03:13:18;4.43;;;4.03;;
18818;SDS011;9537;45.594;9.294;2023-04-01T03:14:20;5.00;;;4.13;;
18818;SDS011;9537;45.594;9.294;2023-04-01T03:15:21;5.17;;;4.63;;
18818;SDS011;9537;45.594;9.294;2023-04-01T03:16:23;5.93;;;4.43;;
18818;SDS011;9537;45.594;9.294;2023-04-01T03:17:24;6.03;;;4.87;;
18818;SDS011;9537;45.594;9.294;2023-04-01T03:18:26;5.47;;;4.27;;
18818;SDS011;9537;45.594;9.294;2023-04-01T03:19:27;6.13;;;4.40;;
18818;SDS011;9537;45.594;9.294;2023-04-01T03:20:29;5.83;;;4.70;;
18818;SDS011;9537;45.594;9.294;2023-04-01T03:21:30;6.00;;;4.87;;
18818;SDS011;9537;45.594;9.294;2023-04-01T03:22:32;6.87;;;5.47;;
18818;SDS011;9537;45.594;9.294;2023-04-01T03:23:34;5.40;;;4.67;;
18818;SDS011;9537;45.594;9.294;2023-04-01T03:24:36;5.90;;;4.80;;
18818;SDS011;9537;45.594;9.294;2023-04-01T03:25:37;6.47;;;4.47;;
18818;SDS011;9537;45.594;9.294;2023-04-01T03:26:40;5.30;;;4.80;;
18818;SDS011;9537;45.594;9.294;2023-04-01T03:27:41;7.63;;;4.63;;
18818;SDS011;9537;45.594;9.294;2023-04-01T03:28:42;5.23;;;4.17;;
18818;SDS011;9537;45.594;9.294;2023-04-01T03:29:44;5.17;;;4.63;;
18818;SDS011;9537;45.594;9.294;2023-04-01T03:30:46;4.93;;;4.43;;
18818;SDS011;9537;45.594;9.294;2023-04-01T03:31:47;5.63;;;4.30;;
18818;SDS011;9537;45.594;9.294;2023-04-01T03:32:49;4.80;;;4.40;;
18818;SDS011;9537;45.594;9.294;2023-04-01T03:33:50;4.90;;;4.33;;
18818;SDS011;9537;45.594;9.294;2023-04-01T03:34:52;4.60;;;3.93;;
18818;SDS011;9537;45.594;9.294;2023-04-01T03:35:53;5.03;;;4.53;;
18818;SDS011;9537;45.594;9.294;2023-04-01T03:36:55;4.63;;;4.17;;
18818;SDS011;9537;45.594;9.294;2023-04-01T03:37:58;5.73;;;4.77;;
18818;SDS011;9537;45.594;9.294;2023-04-01T03:39:00;5.00;;;4.37;;
18818;SDS011;9537;45.594;9.294;2023-04-01T03:40:04;5.70;;;3.60;;
18818;SDS011;9537;45.594;9.294;2023-04-01T03:41:06;8.10;;;4.83;;
18818;SDS011;9537;45.594;9.294;2023-04-01T03:42:08;4.83;;;4.33;;
18818;SDS011;9537;45.594;9.294;2023-04-01T03:43:09;6.03;;;4.70;;
18818;SDS011;9537;45.594;9.294;2023-04-01T03:44:11;4.87;;;4.37;;
18818;SDS011;9537;45.594;9.294;2023-04-01T03:45:12;5.23;;;4.50;;
18818;SDS011;9537;45.594;9.294;2023-04-01T03:46:16;6.30;;;4.90;;
18818;SDS011;9537;45.594;9.294;2023-04-01T03:47:18;5.40;;;4.70;;
18818;SDS011;9537;45.594;9.294;2023-04-01T03:48:20;7.53;;;5.20;;
18818;SDS011;9537;45.594;9.294;2023-04-01T03:49:21;6.17;;;5.23;;
18818;SDS011;9537;45.594;9.294;2023-04-01T03:50:23;6.83;;;5.57;;
18818;SDS011;9537;45.594;9.294;2023-04-01T03:51:24;5.60;;;4.77;;
18818;SDS011;9537;45.594;9.294;2023-04-01T03:52:26;5.70;;;4.50;;
18818;SDS011;9537;45.594;9.294;2023-04-01T03:53:27;5.60;;;4.20;;
18818;SDS011;9537;45.594;9.294;2023-04-01T03:54:30;4.87;;;4.00;;
18818;SDS011;9537;45.594;9.294;2023-04-01T03:55:32;6.10;;;4.80;;
18818;SDS011;9537;45.594;9.294;2023-04-01T03:56:34;4.53;;;4.10;;
18818;SDS011;9537;45.594;9.294;2023-04-01T03:57:35;4.87;;;4.37;;
18818;SDS011;9537;45.594;9.294;2023-04-01T03:58:37;5.23;;;4.73;;
18818;SDS011;9537;45.594;9.294;2023-04-01T03:59:39;4.87;;;4.37;;
18818;SDS011;9537;45.594;9.294;2023-04-01T04:00:41;4.60;;;4.20;;
18818;SDS011;9537;45.594;9.294;2023-04-01T04:01:42;5.87;;;4.33;;
18818;SDS011;9537;45.594;9.294;2023-04-01T04:02:47;4.40;;;4.00;;
18818;SDS011;9537;45.594;9.294;2023-04-01T04:03:48;4.97;;;4.33;;
18818;SDS011;9537;45.594;9.294;2023-04-01T04:04:50;4.70;;;4.30;;
18818;SDS011;9537;45.594;9.294;2023-04-01T04:05:51;6.30;;;4.70;;
18818;SDS011;9537;45.594;9.294;2023-04-01T04:06:53;6.83;;;5.10;;
18818;SDS011;9537;45.594;9.294;2023-04-01T04:07:55;5.57;;;4.50;;
18818;SDS011;9537;45.594;9.294;2023-04-01T04:08:56;5.40;;;4.90;;
18818;SDS011;9537;45.594;9.294;2023-04-01T04:10:00;7.30;;;4.83;;
18818;SDS011;9537;45.594;9.294;2023-04-01T04:11:01;6.37;;;4.77;;
18818;SDS011;9537;45.594;9.294;2023-04-01T04:12:03;6.20;;;4.50;;
18818;SDS011;9537;45.594;9.294;2023-04-01T04:13:06;5.97;;;5.13;;
18818;SDS011;9537;45.594;9.294;2023-04-01T04:14:08;5.63;;;4.67;;
18818;SDS011;9537;45.594;9.294;2023-04-01T04:15:09;6.10;;;4.77;;
18818;SDS011;9537;45.594;9.294;2023-04-01T04:16:12;5.77;;;4.57;;
18818;SDS011;9537;45.594;9.294;2023-04-01T04:17:13;5.60;;;5.00;;
18818;SDS011;9537;45.594;9.294;2023-04-01T04:18:16;6.57;;;4.80;;
18818;SDS011;9537;45.594;9.294;2023-04-01T04:19:17;6.77;;;4.87;;
18818;SDS011;9537;45.594;9.294;2023-04-01T04:20:19;5.50;;;4.50;;
18818;SDS011;9537;45.594;9.294;2023-04-01T04:21:20;4.83;;;4.30;;
18818;SDS011;9537;45.594;9.294;2023-04-01T04:22:22;6.33;;;4.50;;
18818;SDS011;9537;45.594;9.294;2023-04-01T04:23:23;6.70;;;4.87;;
18818;SDS011;9537;45.594;9.294;2023-04-01T04:24:25;5.37;;;4.20;;
18818;SDS011;9537;45.594;9.294;2023-04-01T04:25:29;5.13;;;4.53;;
18818;SDS011;9537;45.594;9.294;2023-04-01T04:26:30;6.40;;;4.87;;
18818;SDS011;9537;45.594;9.294;2023-04-01T04:27:32;4.63;;;4.17;;
18818;SDS011;9537;45.594;9.294;2023-04-01T04:28:35;6.10;;;5.10;;
18818;SDS011;9537;45.594;9.294;2023-04-01T04:29:36;6.33;;;4.73;;
18818;SDS011;9537;45.594;9.294;2023-04-01T04:30:38;4.60;;;4.20;;
18818;SDS011;9537;45.594;9.294;2023-04-01T04:31:39;7.67;;;4.40;;
18818;SDS011;9537;45.594;9.294;2023-04-01T04:32:41;5.07;;;4.10;;
18818;SDS011;9537;45.594;9.294;2023-04-01T04:33:42;5.53;;;4.13;;
18818;SDS011;9537;45.594;9.294;2023-04-01T04:34:44;6.00;;;4.23;;
18818;SDS011;9537;45.594;9.294;2023-04-01T04:35:45;5.03;;;4.27;;
18818;SDS011;9537;45.594;9.294;2023-04-01T04:36:47;5.40;;;3.97;;
18818;SDS011;9537;45.594;9.294;2023-04-01T04:37:48;4.23;;;3.83;;
18818;SDS011;9537;45.594;9.294;2023-04-01T04:38:50;4.70;;;3.50;;
18818;SDS011;9537;45.594;9.294;2023-04-01T04:39:51;4.30;;;3.90;;
18818;SDS011;9537;45.594;9.294;2023-04-01T04:40:54;4.07;;;3.67;;
18818;SDS011;9537;45.594;9.294;2023-04-01T04:41:55;6.07;;;3.67;;
18818;SDS011;9537;45.594;9.294;2023-04-01T04:42:57;4.87;;;3.90;;
18818;SDS011;9537;45.594;9.294;2023-04-01T04:43:58;4.37;;;3.43;;
18818;SDS011;9537;45.594;9.294;2023-04-01T04:45:00;4.70;;;4.03;;
18818;SDS011;9537;45.594;9.294;2023-04-01T04:46:03;4.17;;;3.27;;
18818;SDS011;9537;45.594;9.294;2023-04-01T04:47:06;3.53;;;3.23;;
18818;SDS011;9537;45.594;9.294;2023-04-01T04:48:07;4.97;;;4.10;;
18818;SDS011;9537;45.594;9.294;2023-04-01T04:49:10;4.23;;;3.83;;
18818;SDS011;9537;45.594;9.294;2023-04-01T04:50:12;7.77;;;4.03;;
18818;SDS011;9537;45.594;9.294;2023-04-01T04:51:14;5.50;;;4.00;;
18818;SDS011;9537;45.594;9.294;2023-04-01T04:52:16;4.87;;;3.67;;
18818;SDS011;9537;45.594;9.294;2023-04-01T04:53:18;4.47;;;3.97;;
18818;SDS011;9537;45.594;9.294;2023-04-01T04:54:20;5.43;;;3.97;;
18818;SDS011;9537;45.594;9.294;2023-04-01T04:55:21;4.67;;;4.03;;
18818;SDS011;9537;45.594;9.294;2023-04-01T04:56:25;3.87;;;3.53;;
18818;SDS011;9537;45.594;9.294;2023-04-01T04:57:26;4.27;;;3.67;;
18818;SDS011;9537;45.594;9.294;2023-04-01T04:58:28;3.73;;;3.43;;
18818;SDS011;9537;45.594;9.294;2023-04-01T04:59:29;5.90;;;4.10;;
18818;SDS011;9537;45.594;9.294;2023-04-01T05:00:32;4.90;;;4.47;;
18818;SDS011;9537;45.594;9.294;2023-04-01T05:01:33;5.63;;;4.23;;
18818;SDS011;9537;45.594;9.294;2023-04-01T05:02:35;4.33;;;3.93;;
18818;SDS011;9537;45.594;9.294;2023-04-01T05:03:37;6.80;;;4.03;;
18818;SDS011;9537;45.594;9.294;2023-04-01T05:04:39;5.60;;;4.47;;
18818;SDS011;9537;45.594;9.294;2023-04-01T05:05:47;4.30;;;3.87;;
18818;SDS011;9537;45.594;9.294;2023-04-01T05:06:49;4.50;;;3.90;;
18818;SDS011;9537;45.594;9.294;2023-04-01T05:07:52;4.80;;;4.10;;
18818;SDS011;9537;45.594;9.294;2023-04-01T05:08:53;6.20;;;4.27;;
18818;SDS011;9537;45.594;9.294;2023-04-01T05:09:55;4.60;;;4.10;;
18818;SDS011;9537;45.594;9.294;2023-04-01T05:10:57;6.33;;;4.27;;
18818;SDS011;9537;45.594;9.294;2023-04-01T05:11:59;5.10;;;4.60;;
18818;SDS011;9537;45.594;9.294;2023-04-01T05:13:01;5.43;;;4.50;;
18818;SDS011;9537;45.594;9.294;2023-04-01T05:14:02;4.77;;;3.93;;
18818;SDS011;9537;45.594;9.294;2023-04-01T05:15:04;6.20;;;4.13;;
18818;SDS011;9537;45.594;9.294;2023-04-01T05:16:07;6.20;;;4.53;;
18818;SDS011;9537;45.594;9.294;2023-04-01T05:17:10;5.13;;;4.20;;
18818;SDS011;9537;45.594;9.294;2023-04-01T05:18:11;4.77;;;3.87;;
18818;SDS011;9537;45.594;9.294;2023-04-01T05:19:13;5.13;;;3.97;;
18818;SDS011;9537;45.594;9.294;2023-04-01T05:20:15;5.57;;;4.13;;
18818;SDS011;9537;45.594;9.294;2023-04-01T05:21:17;4.40;;;3.83;;
18818;SDS011;9537;45.594;9.294;2023-04-01T05:22:18;5.50;;;4.37;;
18818;SDS011;9537;45.594;9.294;2023-04-01T05:23:20;5.00;;;4.43;;
18818;SDS011;9537;45.594;9.294;2023-04-01T05:24:22;5.47;;;4.03;;
18818;SDS011;9537;45.594;9.294;2023-04-01T05:25:24;4.83;;;3.73;;
18818;SDS011;9537;45.594;9.294;2023-04-01T05:26:26;8.60;;;4.43;;
18818;SDS011;9537;45.594;9.294;2023-04-01T05:27:29;5.23;;;4.30;;
18818;SDS011;9537;45.594;9.294;2023-04-01T05:28:30;5.93;;;4.23;;
18818;SDS011;9537;45.594;9.294;2023-04-01T05:29:33;6.37;;;4.30;;
18818;SDS011;9537;45.594;9.294;2023-04-01T05:30:35;6.47;;;4.53;;
18818;SDS011;9537;45.594;9.294;2023-04-01T05:31:37;5.23;;;4.53;;
18818;SDS011;9537;45.594;9.294;2023-04-01T05:32:38;5.07;;;4.57;;
18818;SDS011;9537;45.594;9.294;2023-04-01T05:33:40;6.60;;;4.23;;
18818;SDS011;9537;45.594;9.294;2023-04-01T05:34:41;5.83;;;4.33;;
18818;SDS011;9537;45.594;9.294;2023-04-01T05:35:43;5.43;;;4.40;;
18818;SDS011;9537;45.594;9.294;2023-04-01T05:36:44;5.70;;;4.00;;
18818;SDS011;9537;45.594;9.294;2023-04-01T05:37:46;7.03;;;4.63;;
18818;SDS011;9537;45.594;9.294;2023-04-01T05:38:47;4.93;;;4.20;;
18818;SDS011;9537;45.594;9.294;2023-04-01T05:39:51;5.27;;;3.93;;
18818;SDS011;9537;45.594;9.294;2023-04-01T05:40:58;6.27;;;4.90;;
18818;SDS011;9537;45.594;9.294;2023-04-01T05:42:00;4.63;;;3.80;;
18818;SDS011;9537;45.594;9.294;2023-04-01T05:43:02;8.27;;;4.40;;
18818;SDS011;9537;45.594;9.294;2023-04-01T05:44:04;7.23;;;4.10;;
18818;SDS011;9537;45.594;9.294;2023-04-01T05:45:06;6.10;;;4.40;;
18818;SDS011;9537;45.594;9.294;2023-04-01T05:46:09;4.23;;;3.83;;
18818;SDS011;9537;45.594;9.294;2023-04-01T05:47:10;8.87;;;4.27;;
18818;SDS011;9537;45.594;9.294;2023-04-01T05:48:12;4.97;;;4.00;;
18818;SDS011;9537;45.594;9.294;2023-04-01T05:49:13;5.17;;;3.93;;
18818;SDS011;9537;45.594;9.294;2023-04-01T05:50:14;6.50;;;4.17;;
18818;SDS011;9537;45.594;9.294;2023-04-01T05:51:15;5.77;;;4.50;;
18818;SDS011;9537;45.594;9.294;2023-04-01T05:52:18;7.97;;;4.30;;
18818;SDS011;9537;45.594;9.294;2023-04-01T05:53:20;6.97;;;4.13;;
18818;SDS011;9537;45.594;9.294;2023-04-01T05:54:21;7.13;;;4.03;;
18818;SDS011;9537;45.594;9.294;2023-04-01T05:55:23;5.10;;;3.60;;
18818;SDS011;9537;45.594;9.294;2023-04-01T05:56:24;5.50;;;4.23;;
18818;SDS011;9537;45.594;9.294;2023-04-01T05:57:26;8.83;;;4.77;;
18818;SDS011;9537;45.594;9.294;2023-04-01T05:58:29;5.20;;;4.23;;
18818;SDS011;9537;45.594;9.294;2023-04-01T05:59:31;4.47;;;3.97;;
18818;SDS011;9537;45.594;9.294;2023-04-01T06:00:32;5.60;;;3.90;;
18818;SDS011;9537;45.594;9.294;2023-04-01T06:01:34;6.37;;;4.60;;
18818;SDS011;9537;45.594;9.294;2023-04-01T06:02:36;4.97;;;3.97;;
18818;SDS011;9537;45.594;9.294;2023-04-01T06:03:39;7.13;;;4.10;;
18818;SDS011;9537;45.594;9.294;2023-04-01T06:04:40;5.17;;;4.10;;
18818;SDS011;9537;45.594;9.294;2023-04-01T06:05:47;5.13;;;4.03;;
18818;SDS011;9537;45.594;9.294;2023-04-01T06:06:48;8.13;;;3.87;;
18818;SDS011;9537;45.594;9.294;2023-04-01T06:07:50;4.40;;;3.93;;
18818;SDS011;9537;45.594;9.294;2023-04-01T06:08:56;6.13;;;4.17;;
18818;SDS011;9537;45.594;9.294;2023-04-01T06:10:00;7.23;;;4.10;;
18818;SDS011;9537;45.594;9.294;2023-04-01T06:11:04;4.57;;;3.73;;
18818;SDS011;9537;45.594;9.294;2023-04-01T06:13:50;4.50;;;4.00;;
18818;SDS011;9537;45.594;9.294;2023-04-01T06:15:12;4.27;;;3.80;;
18818;SDS011;9537;45.594;9.294;2023-04-01T06:16:22;7.33;;;4.37;;
18818;SDS011;9537;45.594;9.294;2023-04-01T06:17:41;5.90;;;4.57;;
18818;SDS011;9537;45.594;9.294;2023-04-01T06:18:55;5.97;;;4.37;;
18818;SDS011;9537;45.594;9.294;2023-04-01T06:20:17;4.27;;;3.87;;
18818;SDS011;9537;45.594;9.294;2023-04-01T06:21:33;5.50;;;4.20;;
18818;SDS011;9537;45.594;9.294;2023-04-01T06:22:49;5.67;;;3.93;;
18818;SDS011;9537;45.594;9.294;2023-04-01T06:24:15;4.70;;;3.60;;
18818;SDS011;9537;45.594;9.294;2023-04-01T06:25:29;5.57;;;4.17;;
18818;SDS011;9537;45.594;9.294;2023-04-01T06:26:41;5.43;;;3.70;;
18818;SDS011;9537;45.594;9.294;2023-04-01T06:28:00;6.57;;;4.20;;
18818;SDS011;9537;45.594;9.294;2023-04-01T06:29:26;6.27;;;4.13;;
18818;SDS011;9537;45.594;9.294;2023-04-01T06:30:41;5.10;;;4.20;;
18818;SDS011;9537;45.594;9.294;2023-04-01T06:31:46;4.90;;;4.13;;
18818;SDS011;9537;45.594;9.294;2023-04-01T06:33:08;5.93;;;4.30;;
18818;SDS011;9537;45.594;9.294;2023-04-01T06:36:08;5.47;;;4.00;;
18818;SDS011;9537;45.594;9.294;2023-04-01T06:37:42;4.63;;;3.70;;
18818;SDS011;9537;45.594;9.294;2023-04-01T06:38:58;7.97;;;4.00;;
18818;SDS011;9537;45.594;9.294;2023-04-01T06:40:20;5.50;;;4.03;;